Terminal Aerodrome Forecast
Issued by NWS

Home | Current Version | Previous Version | Graphics & Text | Print | Product List | Glossary On
Versions: 1 2 3 4 5 6 7 8 9 10 11 12 13 14 15 16 17 18 19 20 21 22 23 24 25 26 27 28 29 30 31 32
000
FTUS43 KBIS 270124 AAA
TAFDIK
TAF AMD
KDIK 270124Z 2701/2724 06006KT P6SM FEW130
     FM270900 07005KT 5SM BR BKN015
     FM271100 07006KT 1SM BR OVC003
     FM271500 09007KT P6SM BKN015
     FM271700 09008KT P6SM SCT040
     FM272300 08008KT P6SM BKN070=

USA.gov is the U.S. government's official web portal to all federal, state and local government web resources and services.